Airfield :
LOGIN :

Register | Disclaimer

   EN    FR    IT 

 










Legend :    VFR   Marginal VFR   IFR   Intensive IFR   Very Intensive IFR
Visi :
Ceiling :
>= 8 km
>= 3000ft
5 to 8 km
1000 to 3000 ft
1500m to 5 km
500 to 1000 ft
800 to 1500m
200 to 500 ft
< 800m
< 200 ft
Symbols :   Thunderstorms  Fog  Heavy snow  Heavy precipitations  Wind > 20 kt
SIGMETs :     Misc.  Thunderstorms  Icing  Turbulence  Mountain Waves  Volcanic Ashes







- Airport Elevation : 741 ft
- IATA code : PED


LKPD - Pardubice AB

CURRENT METAR :
  • 190200Z 25009KT 9999 OVC031 03/02 Q1011 RMK BLU

EXPIRED METARs :
  • 190100Z 25011KT 9999 -RA FEW014 SCT026 OVC030 03/02 Q1012 RMK BLU
  • 190000Z 27012KT 9999 -RA FEW015 SCT027 OVC031 03/01 Q1012 RMK BLU

TAF TAF LKPD
Valid from the 19 at 00:00 until the 20 at 00:00 UTC


182300Z 1900/2000 26008KT 9999 BKN035
TEMPO 1900/1913 26014G24KT
TEMPO 1900/1906 6000 SHRA BKN020 OVC030
BECMG 1912/1914 27014KT
TEMPO 1914/2000 27020G34KT
TEMPO 1915/2000 3000 SHRASN BKN010 OVC020
No reported NOTAMs for that airfield.



MET'MAP, your aeronautical weather chart ! - Copyright ORBIFLY December 2007 - Disclaimer

ORBIFLY MET'MAP TEAM :

Programming & Development : Alexandra Zaïnal
Concept & Development : Baudouin d'Aumeries
Co-Development & Prog : Marc-Olivier Méhu
Technical & hardware support : Manuel Goepfert

Contact : metmap@orbifly.com




SOURCES & CREDITS :

   NOAA